createdAt,value
2023-04-27T00:00:49.816Z,5.44
2023-04-27T00:03:57.720Z,5.24
2023-04-27T00:07:04.548Z,5.47
2023-04-27T00:10:11.410Z,5.36
2023-04-27T00:13:17.573Z,5.35
2023-04-27T00:16:23.887Z,5.24
2023-04-27T00:19:31.524Z,5.06
2023-04-27T00:22:37.794Z,5.14
2023-04-27T00:25:43.931Z,5.15
2023-04-27T00:28:50.093Z,4.83
2023-04-27T00:31:56.077Z,5.36
2023-04-27T00:35:03.347Z,5.36
2023-04-27T00:38:09.688Z,5.16
2023-04-27T00:41:15.906Z,5.18
2023-04-27T00:44:25.957Z,5.08
2023-04-27T00:47:32.495Z,5.00
2023-04-27T00:50:40.844Z,4.70
2023-04-27T00:53:47.315Z,4.80
2023-04-27T00:56:54.693Z,4.88
2023-04-27T01:00:01.754Z,4.65
2023-04-27T01:03:08.824Z,4.50
2023-04-27T01:06:16.894Z,4.60
2023-04-27T01:09:23.050Z,4.32
2023-04-27T01:12:29.077Z,4.58
2023-04-27T01:15:35.227Z,4.33
2023-04-27T01:18:41.695Z,4.49
2023-04-27T01:21:49.365Z,4.54
2023-04-27T01:24:56.956Z,4.21
2023-04-27T01:28:03.297Z,4.37
2023-04-27T01:31:09.636Z,3.85
2023-04-27T01:34:15.836Z,4.21
2023-04-27T01:37:21.940Z,4.09
2023-04-27T01:40:29.791Z,4.38
2023-04-27T01:43:35.787Z,4.30
2023-04-27T01:46:42.159Z,4.55
2023-04-27T01:49:48.421Z,4.30
2023-04-27T01:52:54.459Z,4.27
2023-04-27T01:56:02.281Z,4.26
2023-04-27T01:59:08.790Z,4.41
2023-04-27T02:02:15.313Z,4.40
2023-04-27T02:05:21.898Z,4.59
2023-04-27T02:08:28.166Z,4.77
2023-04-27T02:11:35.783Z,4.48
2023-04-27T02:14:42.842Z,4.44
2023-04-27T02:17:49.443Z,4.01
2023-04-27T02:20:55.537Z,4.02
2023-04-27T02:24:02.161Z,4.18
2023-04-27T02:27:10.293Z,4.39
2023-04-27T02:30:17.232Z,4.30
2023-04-27T02:33:23.751Z,4.50
2023-04-27T02:36:30.153Z,4.23
2023-04-27T02:39:36.433Z,3.96
2023-04-27T02:42:43.978Z,3.96
2023-04-27T02:45:50.387Z,4.12
2023-04-27T02:48:57.074Z,3.69
2023-04-27T02:52:03.801Z,3.92
2023-04-27T02:55:10.653Z,4.08
2023-04-27T02:58:18.764Z,3.95
2023-04-27T03:01:24.883Z,4.42
2023-04-27T03:04:31.287Z,4.24
2023-04-27T03:07:37.695Z,4.07
2023-04-27T03:10:44.005Z,4.02
2023-04-27T03:13:51.962Z,4.38
2023-04-27T03:16:58.572Z,4.48
2023-04-27T03:20:09.010Z,4.35
2023-04-27T03:23:15.212Z,4.12
2023-04-27T03:26:21.786Z,4.02
2023-04-27T03:29:29.819Z,4.01
2023-04-27T03:32:36.449Z,4.28
2023-04-27T03:35:42.738Z,4.27
2023-04-27T03:38:49.051Z,4.17
2023-04-27T03:41:55.575Z,4.00
2023-04-27T03:45:03.157Z,3.96
2023-04-27T03:48:09.640Z,3.25
2023-04-27T03:51:16.444Z,3.37
2023-04-27T03:54:22.522Z,3.60
2023-04-27T03:57:29.261Z,3.83
2023-04-27T04:00:36.882Z,3.97
2023-04-27T04:03:43.068Z,3.89
2023-04-27T04:06:49.330Z,3.85
2023-04-27T04:09:55.369Z,4.03
2023-04-27T04:13:01.712Z,4.46
2023-04-27T04:16:11.230Z,4.41
2023-04-27T04:19:17.366Z,4.49
2023-04-27T04:22:23.540Z,4.75
2023-04-27T04:25:29.933Z,4.91
2023-04-27T04:28:36.357Z,5.12
2023-04-27T04:31:44.406Z,5.50
2023-04-27T04:34:51.877Z,5.27
2023-04-27T04:37:58.146Z,5.36
2023-04-27T04:41:04.916Z,5.50
2023-04-27T04:44:11.286Z,5.19
2023-04-27T04:47:19.298Z,4.56
2023-04-27T04:50:25.750Z,5.02
2023-04-27T04:53:32.020Z,5.23
2023-04-27T04:56:38.242Z,5.22
2023-04-27T04:59:44.751Z,5.76
2023-04-27T05:02:52.748Z,5.32
2023-04-27T05:05:59.140Z,5.66
2023-04-27T05:09:06.571Z,5.31
2023-04-27T05:12:12.722Z,5.45
2023-04-27T05:15:18.931Z,5.89
2023-04-27T05:18:26.536Z,5.93
2023-04-27T05:21:33.751Z,6.10
2023-04-27T05:24:40.017Z,5.70
2023-04-27T05:27:46.200Z,5.77
2023-04-27T05:30:53.283Z,5.90
2023-04-27T05:34:00.713Z,6.01
2023-04-27T05:37:07.708Z,5.99
2023-04-27T05:40:13.870Z,6.15
2023-04-27T05:43:20.155Z,6.99
2023-04-27T05:46:26.594Z,7.04
2023-04-27T05:49:34.428Z,7.64
2023-04-27T05:52:41.009Z,7.42
2023-04-27T05:55:47.306Z,7.43
2023-04-27T05:58:53.822Z,7.66
2023-04-27T06:02:00.174Z,7.54
2023-04-27T06:05:08.825Z,8.00
2023-04-27T06:08:15.502Z,8.28
2023-04-27T06:11:22.220Z,8.53
2023-04-27T06:14:29.834Z,7.54
2023-04-27T06:17:36.217Z,7.75
2023-04-27T06:20:44.165Z,8.08
2023-04-27T06:23:50.493Z,8.12
2023-04-27T06:26:57.122Z,8.44
2023-04-27T06:30:03.726Z,8.29
2023-04-27T06:33:10.788Z,8.71
2023-04-27T06:36:18.601Z,8.30
2023-04-27T06:39:24.643Z,9.21
2023-04-27T06:42:31.123Z,8.91
2023-04-27T06:45:37.447Z,8.96
2023-04-27T06:48:43.559Z,9.70
2023-04-27T06:51:51.116Z,9.31
2023-04-27T06:54:57.592Z,9.47
2023-04-27T06:58:04.634Z,9.37
2023-04-27T07:01:10.754Z,10.02
2023-04-27T07:04:17.276Z,9.99
2023-04-27T07:07:25.258Z,10.52
2023-04-27T07:10:31.813Z,10.48
2023-04-27T07:13:37.973Z,9.77
2023-04-27T07:16:44.451Z,10.06
2023-04-27T07:19:50.837Z,10.38
2023-04-27T07:22:58.688Z,10.91
2023-04-27T07:26:05.080Z,10.64
2023-04-27T07:29:25.534Z,11.06
2023-04-27T07:32:33.424Z,11.26
2023-04-27T07:35:40.665Z,11.13
2023-04-27T07:38:48.183Z,10.98
2023-04-27T07:41:54.935Z,11.05
2023-04-27T07:45:01.313Z,11.56
2023-04-27T07:48:08.324Z,11.13
2023-04-27T07:51:16.147Z,11.47
2023-04-27T07:54:24.326Z,12.18
2023-04-27T07:57:30.383Z,11.59
2023-04-27T08:00:36.626Z,12.25
2023-04-27T08:03:43.027Z,11.73
2023-04-27T08:06:49.733Z,12.35
2023-04-27T08:09:57.741Z,12.96
2023-04-27T08:13:04.191Z,12.56
2023-04-27T08:16:10.342Z,12.23
2023-04-27T08:19:16.768Z,12.35
2023-04-27T08:22:23.302Z,12.94
2023-04-27T08:25:31.196Z,12.62
2023-04-27T08:28:37.781Z,12.37
2023-04-27T08:31:44.066Z,12.28
2023-04-27T08:34:50.642Z,12.10
2023-04-27T08:37:56.631Z,13.44
2023-04-27T08:41:17.948Z,12.90
2023-04-27T08:44:27.184Z,12.59
2023-04-27T08:47:42.604Z,13.02
2023-04-27T08:50:52.541Z,13.49
2023-04-27T08:53:59.310Z,13.05
2023-04-27T08:57:12.208Z,13.20
2023-04-27T09:00:20.178Z,12.99
2023-04-27T09:03:26.989Z,13.51
2023-04-27T09:06:34.174Z,12.78
2023-04-27T09:09:40.632Z,13.34
2023-04-27T09:12:56.751Z,14.13
2023-04-27T09:16:03.624Z,13.24
2023-04-27T09:19:10.360Z,13.09
2023-04-27T09:22:16.864Z,13.52
2023-04-27T09:25:27.814Z,13.75
2023-04-27T09:28:38.725Z,14.03
2023-04-27T09:31:44.936Z,13.59
2023-04-27T09:34:53.246Z,14.01
2023-04-27T09:38:02.292Z,13.61
2023-04-27T09:41:11.754Z,14.34
2023-04-27T09:44:20.007Z,14.43
2023-04-27T09:47:28.769Z,13.46
2023-04-27T09:50:38.248Z,14.74
2023-04-27T09:53:51.459Z,14.12
2023-04-27T09:57:08.921Z,14.08
2023-04-27T10:00:27.708Z,14.01
2023-04-27T10:03:42.378Z,13.67
2023-04-27T10:07:02.325Z,13.23
2023-04-27T10:10:17.414Z,13.54
2023-04-27T10:13:25.126Z,13.40
2023-04-27T10:16:45.003Z,14.57
2023-04-27T10:19:58.256Z,14.75
2023-04-27T10:23:05.136Z,13.81
2023-04-27T10:26:11.789Z,13.62
2023-04-27T10:29:19.683Z,14.48
2023-04-27T10:32:27.961Z,13.65
2023-04-27T10:35:35.763Z,13.31
2023-04-27T10:38:42.288Z,13.63
2023-04-27T10:41:53.009Z,13.88
2023-04-27T10:44:59.689Z,13.35
2023-04-27T10:48:08.100Z,13.07
2023-04-27T10:51:18.148Z,13.33
2023-04-27T10:54:28.530Z,13.07
2023-04-27T10:57:35.122Z,13.01
2023-04-27T11:00:44.504Z,13.38
2023-04-27T11:03:58.016Z,13.63
2023-04-27T11:07:05.786Z,13.16
2023-04-27T11:10:16.185Z,13.50
2023-04-27T11:13:28.384Z,13.57
2023-04-27T11:16:35.131Z,13.23
2023-04-27T11:19:49.566Z,13.35
2023-04-27T11:22:56.233Z,14.39
2023-04-27T11:26:11.077Z,14.57
2023-04-27T11:29:17.680Z,14.39
2023-04-27T11:32:24.972Z,13.76
2023-04-27T11:35:36.226Z,14.98
2023-04-27T11:38:43.983Z,14.46
2023-04-27T11:41:50.257Z,13.57
2023-04-27T11:44:58.140Z,13.29
2023-04-27T11:48:04.584Z,14.54
2023-04-27T11:51:13.594Z,13.33
2023-04-27T11:54:20.120Z,14.23
2023-04-27T11:57:28.728Z,14.57
2023-04-27T12:00:35.045Z,14.00
2023-04-27T12:03:41.906Z,13.15
2023-04-27T12:06:49.926Z,13.73
2023-04-27T12:09:55.984Z,13.68
2023-04-27T12:13:02.304Z,14.05
2023-04-27T12:16:08.752Z,13.21
2023-04-27T12:19:15.015Z,14.27
2023-04-27T12:22:22.551Z,13.86
2023-04-27T12:25:28.983Z,13.05
2023-04-27T12:28:35.080Z,13.90
2023-04-27T12:31:41.227Z,14.17
2023-04-27T12:34:47.719Z,13.07
2023-04-27T12:37:55.702Z,12.96
2023-04-27T12:41:03.429Z,13.27
2023-04-27T12:44:09.836Z,12.79
2023-04-27T12:47:34.513Z,13.65
2023-04-27T12:50:42.459Z,13.01
2023-04-27T12:53:50.495Z,13.63
2023-04-27T12:56:56.620Z,13.29
2023-04-27T13:00:04.400Z,13.61
2023-04-27T13:03:10.858Z,13.42
2023-04-27T13:06:17.389Z,13.68
2023-04-27T13:09:25.705Z,12.89
2023-04-27T13:12:32.726Z,13.06
2023-04-27T13:15:39.265Z,13.37
2023-04-27T13:18:49.976Z,12.64
2023-04-27T13:21:56.685Z,13.05
2023-04-27T13:25:06.126Z,13.49
2023-04-27T13:28:12.635Z,12.78
2023-04-27T13:31:19.053Z,12.95
2023-04-27T13:34:25.839Z,13.22
2023-04-27T13:37:32.687Z,12.81
2023-04-27T13:40:40.462Z,12.57
2023-04-27T13:43:46.953Z,12.77
2023-04-27T13:46:53.469Z,13.26
2023-04-27T13:49:59.625Z,13.32
2023-04-27T13:53:06.269Z,13.00
2023-04-27T13:56:13.843Z,13.93
2023-04-27T13:59:20.227Z,13.32
2023-04-27T14:02:26.976Z,13.67
2023-04-27T14:05:33.293Z,13.35
2023-04-27T14:08:39.549Z,12.81
2023-04-27T14:11:56.566Z,13.31
2023-04-27T14:15:03.190Z,12.78
2023-04-27T14:18:11.022Z,13.05
2023-04-27T14:21:17.188Z,13.19
2023-04-27T14:24:23.982Z,13.03
2023-04-27T14:27:31.729Z,14.02
2023-04-27T14:30:38.104Z,13.79
2023-04-27T14:33:44.888Z,13.97
2023-04-27T14:36:51.780Z,13.47
2023-04-27T14:39:58.858Z,13.19
2023-04-27T14:43:06.848Z,12.90
2023-04-27T14:49:26.023Z,13.13
2023-04-27T14:52:32.443Z,13.04
2023-04-27T14:55:38.666Z,12.87
2023-04-27T14:58:46.234Z,13.14
2023-04-27T15:01:52.499Z,13.60
2023-04-27T15:04:58.996Z,13.33
2023-04-27T15:08:05.423Z,13.13
2023-04-27T15:11:11.981Z,12.53
2023-04-27T15:14:19.374Z,12.89
2023-04-27T15:17:26.289Z,12.81
2023-04-27T15:20:32.937Z,12.69
2023-04-27T15:23:39.696Z,12.30
2023-04-27T15:26:48.118Z,12.46
2023-04-27T15:29:56.402Z,12.66
2023-04-27T15:33:03.324Z,12.28
2023-04-27T15:36:10.190Z,11.98
2023-04-27T15:39:16.851Z,11.94
2023-04-27T15:42:25.009Z,12.02
2023-04-27T15:45:32.857Z,12.12
2023-04-27T15:48:39.125Z,12.38
2023-04-27T15:51:45.089Z,11.88
2023-04-27T15:54:51.233Z,11.81
2023-04-27T15:57:57.221Z,11.48
2023-04-27T16:01:04.579Z,11.74
2023-04-27T16:04:11.226Z,11.59
2023-04-27T16:07:17.572Z,11.46
2023-04-27T16:10:23.810Z,11.52
2023-04-27T16:13:30.139Z,11.43
2023-04-27T16:16:38.870Z,11.35
2023-04-27T16:19:45.370Z,11.33
2023-04-27T16:22:51.573Z,11.09
2023-04-27T16:25:57.680Z,11.27
2023-04-27T16:29:03.966Z,11.27
2023-04-27T16:32:12.002Z,11.14
2023-04-27T16:35:18.463Z,11.06
2023-04-27T16:38:24.707Z,10.80
2023-04-27T16:41:31.105Z,10.90
2023-04-27T16:44:39.018Z,10.77
2023-04-27T16:47:48.101Z,10.79
2023-04-27T16:50:55.644Z,10.85
2023-04-27T16:54:02.687Z,10.74
2023-04-27T16:57:08.918Z,10.66
2023-04-27T17:00:16.764Z,10.50
2023-04-27T17:03:24.576Z,10.72
2023-04-27T17:06:31.411Z,10.54
2023-04-27T17:09:37.864Z,10.42
2023-04-27T17:12:43.914Z,10.68
2023-04-27T17:15:51.351Z,10.41
2023-04-27T17:18:58.730Z,10.46
2023-04-27T17:22:05.305Z,10.38
2023-04-27T17:25:11.697Z,10.31
2023-04-27T17:28:18.148Z,10.27
2023-04-27T17:31:24.269Z,10.13
2023-04-27T17:34:31.688Z,10.08
2023-04-27T17:37:38.049Z,10.13
2023-04-27T17:40:44.476Z,10.16
2023-04-27T17:43:51.090Z,9.99
2023-04-27T17:46:57.450Z,10.00
2023-04-27T17:50:05.219Z,9.78
2023-04-27T17:53:11.250Z,9.77
2023-04-27T17:56:17.421Z,9.79
2023-04-27T17:59:23.543Z,9.81
2023-04-27T18:02:29.922Z,9.83
2023-04-27T18:05:37.448Z,9.71
2023-04-27T18:08:43.942Z,9.65
2023-04-27T18:11:50.556Z,9.54
2023-04-27T18:14:56.807Z,9.43
2023-04-27T18:18:02.712Z,9.60
2023-04-27T18:21:10.061Z,9.53
2023-04-27T18:24:16.076Z,9.57
2023-04-27T18:27:22.467Z,9.60
2023-04-27T18:30:28.708Z,9.32
2023-04-27T18:33:35.059Z,9.41
2023-04-27T18:36:42.839Z,9.49
2023-04-27T18:39:51.454Z,9.35
2023-04-27T18:42:58.798Z,9.30
2023-04-27T18:46:05.458Z,9.28
2023-04-27T18:49:12.187Z,9.18
2023-04-27T18:52:19.725Z,9.13
2023-04-27T18:55:26.185Z,9.28
2023-04-27T18:58:32.486Z,9.16
2023-04-27T19:01:39.893Z,9.08
2023-04-27T19:04:52.943Z,9.07
2023-04-27T19:08:09.346Z,8.84
2023-04-27T19:11:15.806Z,8.87
2023-04-27T19:14:23.382Z,8.77
2023-04-27T19:17:29.541Z,8.69
2023-04-27T19:20:35.773Z,8.74
2023-04-27T19:23:45.217Z,8.49
2023-04-27T19:26:51.579Z,8.39
2023-04-27T19:29:58.896Z,8.58
2023-04-27T19:33:05.037Z,8.53
2023-04-27T19:36:11.556Z,8.55
2023-04-27T19:39:20.983Z,8.56
2023-04-27T19:42:27.193Z,8.54
2023-04-27T19:45:33.225Z,8.42
2023-04-27T19:48:39.413Z,8.44
2023-04-27T19:51:45.277Z,8.14
2023-04-27T19:54:54.224Z,8.31
2023-04-27T19:58:00.151Z,8.33
2023-04-27T20:01:06.359Z,8.17
2023-04-27T20:04:13.042Z,8.14
2023-04-27T20:07:19.794Z,8.25
2023-04-27T20:10:27.790Z,8.45
2023-04-27T20:13:33.991Z,8.42
2023-04-27T20:16:40.392Z,8.32
2023-04-27T20:19:46.595Z,8.31
2023-04-27T20:22:52.731Z,8.17
2023-04-27T20:26:00.204Z,8.15
2023-04-27T20:29:06.092Z,8.12
2023-04-27T20:32:12.456Z,8.26
2023-04-27T20:35:18.539Z,8.27
2023-04-27T20:38:24.664Z,8.14
2023-04-27T20:41:33.779Z,7.88
2023-04-27T20:44:40.277Z,7.90
2023-04-27T20:47:46.461Z,7.86
2023-04-27T20:50:53.110Z,7.79
2023-04-27T20:53:59.032Z,8.06
2023-04-27T20:57:10.755Z,7.84
2023-04-27T21:00:17.268Z,7.92
2023-04-27T21:03:23.651Z,7.59
2023-04-27T21:06:29.968Z,7.67
2023-04-27T21:09:36.353Z,7.77
2023-04-27T21:12:44.092Z,7.57
2023-04-27T21:15:50.323Z,7.72
2023-04-27T21:18:56.672Z,7.70
2023-04-27T21:22:02.772Z,7.63
2023-04-27T21:25:09.663Z,7.40
2023-04-27T21:28:17.482Z,7.39
2023-04-27T21:31:23.721Z,7.39
2023-04-27T21:34:29.800Z,7.39
2023-04-27T21:37:36.417Z,7.13
2023-04-27T21:40:42.692Z,7.03
2023-04-27T21:43:49.928Z,7.14
2023-04-27T21:46:56.302Z,6.73
2023-04-27T21:50:02.260Z,6.76
2023-04-27T21:53:08.031Z,6.71
2023-04-27T21:56:14.299Z,6.50
2023-04-27T21:59:21.730Z,6.35
2023-04-27T22:02:29.572Z,6.54
2023-04-27T22:05:37.332Z,6.26
2023-04-27T22:08:43.434Z,6.53
2023-04-27T22:11:49.400Z,6.75
2023-04-27T22:14:57.059Z,6.97
2023-04-27T22:18:06.749Z,6.88
2023-04-27T22:21:13.765Z,6.58
2023-04-27T22:24:20.146Z,6.78
2023-04-27T22:27:28.003Z,6.61
2023-04-27T22:30:42.928Z,6.61
2023-04-27T22:33:49.336Z,6.21
2023-04-27T22:36:55.828Z,6.16
2023-04-27T22:40:02.738Z,6.34
2023-04-27T22:43:08.815Z,6.09
2023-04-27T22:46:16.103Z,6.15
2023-04-27T22:49:22.306Z,6.14
2023-04-27T22:52:28.524Z,6.18
2023-04-27T22:55:34.615Z,5.97
2023-04-27T22:58:40.973Z,5.98
2023-04-27T23:01:48.529Z,5.90
2023-04-27T23:04:55.706Z,5.69
2023-04-27T23:08:01.694Z,5.38
2023-04-27T23:11:08.500Z,5.50
2023-04-27T23:14:18.301Z,5.34
2023-04-27T23:17:31.113Z,5.47
2023-04-27T23:20:37.069Z,5.36
2023-04-27T23:23:42.874Z,5.49
2023-04-27T23:26:48.925Z,5.45
2023-04-27T23:29:54.848Z,5.42
2023-04-27T23:33:02.815Z,5.63
2023-04-27T23:36:09.449Z,5.58
2023-04-27T23:39:15.745Z,5.35
2023-04-27T23:42:22.597Z,5.33
2023-04-27T23:45:28.817Z,5.45
2023-04-27T23:48:36.646Z,5.28
2023-04-27T23:51:42.876Z,5.25
2023-04-27T23:54:48.768Z,5.05
2023-04-27T23:57:55.175Z,5.20
